Terminal Aerodrome Forecast
Issued by NWS Northern Indiana

Home | Current Version | Previous Version | Text Only | Print | Product List | Glossary On
Versions: 1 2 3 4 5 6 7 8 9 10 11 12 13 14 15 16 17 18
000
FTUS43 KIWX 240642 AAA
TAFFWA
TAF AMD
KFWA 240642Z 2407/2506 26010KT 5SM SHRA VCTS SCT015CB BKN050
      TEMPO 2407/2408 26014G28KT 4SM TSRA BR BKN015CB OVC050
     FM241000 VRB03KT 5SM BR BKN200
     FM241300 22008KT P6SM BKN250=

USA.gov is the U.S. government's official web portal to all federal, state and local government web resources and services.